Time;durP1;ratioP1;P1;durP2;ratioP2;P2;SDS_P1;SDS_P2;PMS_P1;PMS_P2;Temp;Humidity;BMP_temperature;BMP_pressure;BME280_temperature;BME280_humidity;BME280_pressure;Samples;Min_cycle;Max_cycle;Signal;HPM_P1;HPM_P2
2021/09/27 00:00:46;;;;;;;3.75;2.22;;;;;;;;;;4821788;29;20140;-77
2021/09/27 00:03:14;;;;;;;3.83;2.15;;;;;;;;;;4826707;29;20388;-76
2021/09/27 00:05:42;;;;;;;3.63;2.05;;;;;;;;;;4835563;29;20050;-77
2021/09/27 00:08:09;;;;;;;3.40;1.83;;;;;;;;;;4842459;29;20049;-77
2021/09/27 00:10:42;;;;;;;3.67;2.13;;;;;;;;;;4842988;29;20050;-76
2021/09/27 00:13:10;;;;;;;3.00;1.55;;;;;;;;;;4847064;29;20046;-76
2021/09/27 00:15:41;;;;;;;3.85;2.20;;;;;;;;;;4825285;29;20526;-76
2021/09/27 00:18:08;;;;;;;3.55;2.15;;;;;;;;;;4824875;29;20144;-77
2021/09/27 00:20:44;;;;;;;3.72;2.20;;;;;;;;;;4834123;29;20050;-77
2021/09/27 00:23:11;;;;;;;4.25;2.00;;;;;;;;;;4840718;29;20106;-77
2021/09/27 00:25:39;;;;;;;3.72;2.05;;;;;;;;;;4841780;29;20038;-77
2021/09/27 00:28:06;;;;;;;6.13;1.92;;;;;;;;;;4840271;29;20127;-76
2021/09/27 00:30:34;;;;;;;3.30;1.92;;;;;;;;;;4842473;29;20049;-77
2021/09/27 00:33:02;;;;;;;3.45;2.00;;;;;;;;;;4836015;29;20060;-77
2021/09/27 00:35:30;;;;;;;4.15;2.47;;;;;;;;;;4853988;29;20132;-77
2021/09/27 00:37:58;;;;;;;4.85;2.67;;;;;;;;;;4832356;29;20050;-77
2021/09/27 00:40:27;;;;;;;4.00;2.38;;;;;;;;;;4842263;29;20399;-76
2021/09/27 00:42:55;;;;;;;4.88;2.65;;;;;;;;;;4826939;29;20065;-77
2021/09/27 00:45:26;;;;;;;5.03;3.13;;;;;;;;;;4842058;29;20058;-76
2021/09/27 00:47:53;;;;;;;4.70;2.35;;;;;;;;;;4835241;29;20077;-77
2021/09/27 00:50:22;;;;;;;3.85;2.17;;;;;;;;;;4837763;29;20094;-77
2021/09/27 00:52:49;;;;;;;3.75;2.33;;;;;;;;;;4827084;29;20106;-77
2021/09/27 00:55:19;;;;;;;3.95;2.00;;;;;;;;;;4839384;29;20061;-77
2021/09/27 00:57:47;;;;;;;3.75;2.28;;;;;;;;;;4843151;29;20071;-80
2021/09/27 01:00:18;;;;;;;3.80;2.20;;;;;;;;;;4842685;29;20125;-80
2021/09/27 01:02:45;;;;;;;3.58;1.98;;;;;;;;;;4841954;29;20126;-80
2021/09/27 01:05:14;;;;;;;5.60;2.58;;;;;;;;;;4823302;29;20543;-80
2021/09/27 01:07:58;;;;;;;3.85;2.20;;;;;;;;;;4822194;29;20134;-80
2021/09/27 01:10:32;;;;;;;4.15;2.38;;;;;;;;;;4837141;29;20046;-80
2021/09/27 01:13:17;;;;;;;5.38;2.42;;;;;;;;;;4841175;29;20066;-80
2021/09/27 01:15:51;;;;;;;5.10;2.50;;;;;;;;;;4841696;29;20062;-80
2021/09/27 01:18:27;;;;;;;4.18;2.15;;;;;;;;;;4825471;29;20507;-80
2021/09/27 01:21:07;;;;;;;4.07;2.50;;;;;;;;;;4840631;29;20111;-80
2021/09/27 01:24:07;;;;;;;4.10;2.30;;;;;;;;;;4841086;29;20053;-81
2021/09/27 01:26:40;;;;;;;3.90;2.28;;;;;;;;;;4824761;29;20122;-80
2021/09/27 07:50:00;;;;;;;3.83;2.05;;;;;;;;;;5355726;23;20144;-86
2021/09/27 08:11:27;;;;;;;5.00;3.30;;;;;;;;;;5164845;23;20605;-80
2021/09/27 08:13:55;;;;;;;4.25;2.90;;;;;;;;;;4824041;29;20120;-80
2021/09/27 08:16:22;;;;;;;5.50;2.83;;;;;;;;;;4845512;29;20578;-83
2021/09/27 08:18:49;;;;;;;4.65;2.90;;;;;;;;;;4830027;29;20057;-80
2021/09/27 08:21:18;;;;;;;5.03;3.25;;;;;;;;;;4845838;29;20045;-81
2021/09/27 08:23:47;;;;;;;5.35;3.72;;;;;;;;;;4855660;29;20466;-78
2021/09/27 08:26:15;;;;;;;4.63;2.80;;;;;;;;;;4843849;29;20502;-77
2021/09/27 08:28:43;;;;;;;6.03;3.75;;;;;;;;;;4845221;29;20106;-76
2021/09/27 08:31:14;;;;;;;5.88;3.65;;;;;;;;;;4844626;29;20139;-78
2021/09/27 08:33:42;;;;;;;7.40;4.25;;;;;;;;;;4858428;29;20125;-81
2021/09/27 08:36:11;;;;;;;5.40;3.65;;;;;;;;;;4833852;29;20064;-81
2021/09/27 08:38:39;;;;;;;4.72;3.25;;;;;;;;;;4844256;29;20091;-86
2021/09/27 08:41:11;;;;;;;5.18;3.42;;;;;;;;;;4847395;29;20153;-76
2021/09/27 08:43:52;;;;;;;4.57;2.63;;;;;;;;;;4845297;29;20456;-81
2021/09/27 08:46:19;;;;;;;5.22;3.10;;;;;;;;;;4846278;29;20306;-86
2021/09/27 08:49:07;;;;;;;4.55;3.05;;;;;;;;;;4846992;29;20038;-86
2021/09/27 08:51:37;;;;;;;5.65;2.53;;;;;;;;;;4832309;29;20053;-87
2021/09/27 08:54:10;;;;;;;3.42;2.28;;;;;;;;;;4851118;29;20522;-86
2021/09/27 08:56:48;;;;;;;2.95;1.77;;;;;;;;;;4851189;29;20059;-83
2021/09/27 08:59:31;;;;;;;4.13;2.72;;;;;;;;;;4866872;29;20060;-81
2021/09/27 09:01:58;;;;;;;;;;;;;;;;;;4861201;29;20319;-86
2021/09/27 09:04:44;;;;;;;3.58;2.35;;;;;;;;;;4849089;29;19967;-77
2021/09/27 09:07:15;;;;;;;6.13;2.92;;;;;;;;;;4842552;29;20049;-85
2021/09/27 09:09:43;;;;;;;3.67;2.40;;;;;;;;;;4857593;29;20117;-88
2021/09/27 09:12:22;;;;;;;6.15;3.17;;;;;;;;;;4845031;29;20062;-86
2021/09/27 09:14:55;;;;;;;4.15;2.88;;;;;;;;;;4852420;29;20113;-83
2021/09/27 09:17:26;;;;;;;5.25;3.45;;;;;;;;;;4858900;29;20486;-82
2021/09/27 09:19:53;;;;;;;4.77;2.57;;;;;;;;;;4845095;29;20041;-83
2021/09/27 09:22:25;;;;;;;6.05;3.70;;;;;;;;;;4844648;29;20140;-82
2021/09/27 09:24:52;;;;;;;6.03;3.92;;;;;;;;;;4842905;29;20466;-82
2021/09/27 09:27:20;;;;;;;7.88;4.70;;;;;;;;;;4841590;29;20053;-81
2021/09/27 09:29:48;;;;;;;6.88;4.15;;;;;;;;;;4853663;29;20066;-84
2021/09/27 09:32:18;;;;;;;5.35;3.47;;;;;;;;;;4849404;29;20678;-81
2021/09/27 09:34:46;;;;;;;5.90;2.97;;;;;;;;;;4850162;29;20049;-81
2021/09/27 09:37:17;;;;;;;4.70;3.20;;;;;;;;;;4837148;29;20049;-80
2021/09/27 09:39:53;;;;;;;4.20;2.88;;;;;;;;;;4842749;29;20045;-79
2021/09/27 09:42:21;;;;;;;5.95;3.33;;;;;;;;;;4844966;29;20490;-81
2021/09/27 09:44:49;;;;;;;5.82;3.63;;;;;;;;;;4869026;29;20462;-79
2021/09/27 09:47:20;;;;;;;6.32;4.00;;;;;;;;;;4868593;29;20060;-84
2021/09/27 09:50:02;;;;;;;6.25;3.33;;;;;;;;;;4847942;29;20061;-83
2021/09/27 09:52:36;;;;;;;6.97;3.22;;;;;;;;;;4841111;29;20141;-77
2021/09/27 09:55:13;;;;;;;6.43;4.47;;;;;;;;;;4855321;29;20045;-78
2021/09/27 09:57:43;;;;;;;4.53;2.92;;;;;;;;;;4860857;29;20045;-86
2021/09/27 10:00:16;;;;;;;5.50;3.42;;;;;;;;;;4839592;29;20076;-87
2021/09/27 10:02:44;;;;;;;7.35;4.45;;;;;;;;;;4851461;29;20511;-86
2021/09/27 10:05:34;;;;;;;6.03;3.65;;;;;;;;;;4850960;29;20050;-85
2021/09/27 10:08:04;;;;;;;6.93;4.30;;;;;;;;;;4844628;29;20069;-83
2021/09/27 10:10:36;;;;;;;6.53;3.72;;;;;;;;;;4821863;29;20046;-83
2021/09/27 10:13:07;;;;;;;4.28;2.88;;;;;;;;;;4842616;29;20428;-83
2021/09/27 10:15:34;;;;;;;4.93;3.47;;;;;;;;;;4839449;29;20050;-80
2021/09/27 10:18:01;;;;;;;4.88;3.25;;;;;;;;;;4833950;29;20120;-81
2021/09/27 10:20:37;;;;;;;4.05;3.30;;;;;;;;;;4847272;29;20134;-77
2021/09/27 10:23:11;;;;;;;4.72;2.83;;;;;;;;;;4844022;29;20058;-77
2021/09/27 10:25:40;;;;;;;4.60;3.28;;;;;;;;;;4834455;29;20405;-79
2021/09/27 10:28:10;;;;;;;5.18;3.72;;;;;;;;;;4844159;29;20041;-88
2021/09/27 10:30:40;;;;;;;6.25;3.10;;;;;;;;;;4849729;29;20053;-83
2021/09/27 10:33:14;;;;;;;4.53;3.38;;;;;;;;;;4833812;29;20094;-80
2021/09/27 10:35:47;;;;;;;4.65;2.63;;;;;;;;;;4852187;29;20038;-83
2021/09/27 10:38:16;;;;;;;4.85;3.00;;;;;;;;;;4841999;29;20053;-79
2021/09/27 10:40:45;;;;;;;3.88;2.33;;;;;;;;;;4855068;29;20057;-83
2021/09/27 10:43:15;;;;;;;4.25;2.13;;;;;;;;;;4866973;29;20051;-80
2021/09/27 10:45:43;;;;;;;4.65;3.05;;;;;;;;;;4846449;29;20050;-77
2021/09/27 10:48:11;;;;;;;3.85;2.42;;;;;;;;;;4846947;29;20081;-76
2021/09/27 10:50:51;;;;;;;4.07;2.22;;;;;;;;;;4845684;29;21452;-79
2021/09/27 10:53:22;;;;;;;5.85;2.13;;;;;;;;;;4854862;29;20048;-74
2021/09/27 10:55:53;;;;;;;3.92;2.10;;;;;;;;;;4839274;29;20097;-76
2021/09/27 10:58:35;;;;;;;2.92;1.80;;;;;;;;;;4849977;29;20479;-76
2021/09/27 11:01:04;;;;;;;3.33;1.80;;;;;;;;;;4836385;29;20581;-77
2021/09/27 11:03:40;;;;;;;4.20;2.28;;;;;;;;;;4843871;29;20161;-76
2021/09/27 11:06:14;;;;;;;4.22;2.00;;;;;;;;;;4857797;29;20467;-77
2021/09/27 11:08:50;;;;;;;5.15;2.63;;;;;;;;;;4858043;29;20038;-75
2021/09/27 11:11:23;;;;;;;3.08;1.80;;;;;;;;;;4849787;29;20062;-75
2021/09/27 11:13:51;;;;;;;3.05;1.80;;;;;;;;;;4832795;29;20061;-76
2021/09/27 11:16:36;;;;;;;4.28;1.92;;;;;;;;;;4816636;29;20541;-75
2021/09/27 11:19:10;;;;;;;3.33;1.73;;;;;;;;;;4808746;29;20755;-74
2021/09/27 11:21:37;;;;;;;3.85;1.88;;;;;;;;;;4835105;29;20159;-76
2021/09/27 11:24:11;;;;;;;2.90;1.25;;;;;;;;;;4842055;29;20080;-76
2021/09/27 11:26:44;;;;;;;2.85;1.55;;;;;;;;;;4825070;29;20129;-77
2021/09/27 11:29:14;;;;;;;4.25;2.15;;;;;;;;;;4823084;29;20475;-77
2021/09/27 11:31:42;;;;;;;2.55;1.67;;;;;;;;;;4830301;29;20523;-77
2021/09/27 11:34:10;;;;;;;4.72;1.55;;;;;;;;;;4825405;29;20038;-76
2021/09/27 11:36:46;;;;;;;3.35;1.50;;;;;;;;;;4838620;29;20229;-76
2021/09/27 11:39:23;;;;;;;4.10;1.83;;;;;;;;;;4835152;29;20049;-75
2021/09/27 11:42:10;;;;;;;3.03;1.60;;;;;;;;;;4816078;29;20137;-76
2021/09/27 11:44:50;;;;;;;2.13;1.20;;;;;;;;;;4830186;29;20107;-75
2021/09/27 11:47:30;;;;;;;3.60;1.67;;;;;;;;;;4834275;29;20514;-75
2021/09/27 11:50:06;;;;;;;3.13;0.93;;;;;;;;;;4813741;29;20110;-75
2021/09/27 11:52:42;;;;;;;1.95;0.98;;;;;;;;;;4823804;29;20423;-75
2021/09/27 11:55:11;;;;;;;2.03;1.20;;;;;;;;;;4823212;29;20046;-75
2021/09/27 11:57:40;;;;;;;2.63;1.40;;;;;;;;;;4832606;29;20046;-75
2021/09/27 12:00:08;;;;;;;2.45;1.38;;;;;;;;;;4830608;29;20055;-76
2021/09/27 12:03:04;;;;;;;1.75;1.33;;;;;;;;;;4829171;29;20477;-76
2021/09/27 12:05:39;;;;;;;2.47;1.30;;;;;;;;;;4770178;29;20055;-75
2021/09/27 12:08:28;;;;;;;1.77;1.05;;;;;;;;;;4836851;29;20509;-75
2021/09/27 12:11:10;;;;;;;1.73;1.05;;;;;;;;;;4834859;29;20107;-74
2021/09/27 12:13:39;;;;;;;1.88;1.00;;;;;;;;;;4852340;29;20042;-76
2021/09/27 12:16:12;;;;;;;3.00;1.00;;;;;;;;;;4853328;29;20034;-75
2021/09/27 12:18:46;;;;;;;3.42;0.95;;;;;;;;;;4841407;29;20045;-75
2021/09/27 12:21:16;;;;;;;1.67;0.90;;;;;;;;;;4842925;29;20053;-75
2021/09/27 12:23:45;;;;;;;2.95;0.95;;;;;;;;;;4849079;29;20106;-75
2021/09/27 12:26:21;;;;;;;2.22;1.00;;;;;;;;;;4846778;29;20192;-75
2021/09/27 12:28:48;;;;;;;1.83;1.10;;;;;;;;;;4835033;29;20133;-75
2021/09/27 12:31:20;;;;;;;4.03;0.80;;;;;;;;;;4858230;29;20589;-76
2021/09/27 12:33:47;;;;;;;1.50;0.80;;;;;;;;;;4830776;29;20044;-76
2021/09/27 12:36:19;;;;;;;1.38;0.65;;;;;;;;;;4837956;29;20121;-77
2021/09/27 12:38:46;;;;;;;;;;;;;;;;;;4849554;29;20137;-77
2021/09/27 12:41:14;;;;;;;2.47;0.82;;;;;;;;;;4849556;29;19924;-76
2021/09/27 12:43:41;;;;;;;1.65;0.80;;;;;;;;;;4853032;29;20073;-77
2021/09/27 12:46:19;;;;;;;2.42;0.77;;;;;;;;;;4843117;29;20068;-77
2021/09/27 12:48:50;;;;;;;1.00;0.52;;;;;;;;;;4843112;29;20050;-77
2021/09/27 12:51:26;;;;;;;1.17;0.60;;;;;;;;;;4842138;29;20045;-77
2021/09/27 12:54:01;;;;;;;1.67;0.70;;;;;;;;;;4853630;29;20057;-77
2021/09/27 12:56:30;;;;;;;1.42;0.70;;;;;;;;;;4850651;29;20052;-77
2021/09/27 12:59:18;;;;;;;1.60;0.82;;;;;;;;;;4834663;29;20041;-82
2021/09/27 13:01:47;;;;;;;2.38;0.85;;;;;;;;;;4839843;29;20132;-78
2021/09/27 13:04:22;;;;;;;1.70;0.82;;;;;;;;;;4850974;29;20042;-77
2021/09/27 13:06:53;;;;;;;2.05;1.08;;;;;;;;;;4856041;29;20046;-82
2021/09/27 13:09:32;;;;;;;2.03;0.70;;;;;;;;;;4838380;29;20452;-78
2021/09/27 13:12:12;;;;;;;1.48;0.90;;;;;;;;;;4846933;29;20068;-78
2021/09/27 13:14:42;;;;;;;1.33;0.70;;;;;;;;;;4841498;29;20042;-78
2021/09/27 13:17:14;;;;;;;1.52;0.70;;;;;;;;;;4835353;29;20060;-78
2021/09/27 13:19:44;;;;;;;;;;;;;;;;;;4865781;29;20041;-80
2021/09/27 13:22:15;;;;;;;1.23;0.65;;;;;;;;;;4836970;29;19931;-80
2021/09/27 13:24:44;;;;;;;2.17;0.90;;;;;;;;;;4848700;29;20438;-79
2021/09/27 13:27:35;;;;;;;3.25;1.00;;;;;;;;;;4845613;29;20133;-78
2021/09/27 13:30:14;;;;;;;1.40;0.73;;;;;;;;;;4841420;29;20563;-79
2021/09/27 13:32:49;;;;;;;2.17;1.13;;;;;;;;;;4840564;29;20843;-82
2021/09/27 13:35:27;;;;;;;2.25;0.77;;;;;;;;;;4845906;29;20051;-83
2021/09/27 13:38:17;;;;;;;3.92;1.05;;;;;;;;;;4868133;29;20045;-83
2021/09/27 13:40:46;;;;;;;1.45;0.80;;;;;;;;;;4834088;29;20402;-80
2021/09/27 13:43:20;;;;;;;2.10;0.73;;;;;;;;;;4843329;29;20057;-80
2021/09/27 13:45:49;;;;;;;2.20;0.90;;;;;;;;;;4844770;29;20438;-83
2021/09/27 13:48:17;;;;;;;2.08;0.73;;;;;;;;;;4850416;29;20568;-84
2021/09/27 13:50:46;;;;;;;1.63;0.80;;;;;;;;;;4861929;29;20041;-84
2021/09/27 13:53:22;;;;;;;1.42;0.73;;;;;;;;;;4838367;29;20088;-80
2021/09/27 13:55:50;;;;;;;2.17;0.88;;;;;;;;;;4863989;29;20049;-78
2021/09/27 13:58:18;;;;;;;2.13;0.90;;;;;;;;;;4860011;29;20056;-79
2021/09/27 14:00:46;;;;;;;1.15;0.65;;;;;;;;;;4850148;29;20505;-79
2021/09/27 14:03:14;;;;;;;1.38;0.70;;;;;;;;;;4844249;29;20101;-80
2021/09/27 14:05:42;;;;;;;3.05;0.70;;;;;;;;;;4853927;29;20109;-79
2021/09/27 14:08:11;;;;;;;2.45;0.70;;;;;;;;;;4848656;29;20935;-79
2021/09/27 14:10:38;;;;;;;1.27;0.60;;;;;;;;;;4856647;29;20053;-79
2021/09/27 14:13:07;;;;;;;1.55;0.77;;;;;;;;;;4853145;29;20078;-79
2021/09/27 14:15:34;;;;;;;1.73;0.70;;;;;;;;;;4865345;29;20101;-79
2021/09/27 14:18:02;;;;;;;1.15;0.60;;;;;;;;;;4868681;29;20375;-80
2021/09/27 14:20:29;;;;;;;1.60;0.80;;;;;;;;;;4850810;29;20057;-80
2021/09/27 14:22:57;;;;;;;0.85;0.60;;;;;;;;;;4829458;29;20046;-77
2021/09/27 14:25:24;;;;;;;1.63;0.63;;;;;;;;;;4873490;29;20049;-78
2021/09/27 14:27:51;;;;;;;2.50;0.85;;;;;;;;;;4852328;29;20137;-82
2021/09/27 14:30:19;;;;;;;1.65;0.90;;;;;;;;;;4828417;29;20049;-78
2021/09/27 14:32:46;;;;;;;2.25;0.60;;;;;;;;;;4850135;29;20117;-80
2021/09/27 14:35:14;;;;;;;1.27;0.60;;;;;;;;;;4829002;29;20070;-80
2021/09/27 14:37:42;;;;;;;3.55;0.88;;;;;;;;;;4860008;29;20489;-77
2021/09/27 14:40:11;;;;;;;1.88;0.80;;;;;;;;;;4857388;29;20094;-79
2021/09/27 14:42:38;;;;;;;1.00;0.55;;;;;;;;;;4843733;29;20124;-76
2021/09/27 14:45:08;;;;;;;1.92;0.70;;;;;;;;;;4843926;29;20136;-76
2021/09/27 14:47:36;;;;;;;1.85;0.57;;;;;;;;;;4840208;29;20057;-76
2021/09/27 14:50:04;;;;;;;0.85;0.50;;;;;;;;;;4828989;29;20517;-76
2021/09/27 14:52:31;;;;;;;1.10;0.68;;;;;;;;;;4843386;29;20057;-76
2021/09/27 14:54:58;;;;;;;1.35;0.50;;;;;;;;;;4879066;29;20131;-76
2021/09/27 14:57:26;;;;;;;1.42;0.65;;;;;;;;;;4879186;29;20059;-76
2021/09/27 14:59:53;;;;;;;1.35;0.65;;;;;;;;;;4872365;29;20092;-76
2021/09/27 15:02:20;;;;;;;1.45;0.50;;;;;;;;;;4872017;29;20100;-76
2021/09/27 15:04:48;;;;;;;2.35;0.70;;;;;;;;;;4866654;29;20060;-76
2021/09/27 15:07:16;;;;;;;1.60;0.63;;;;;;;;;;4847377;29;20045;-76
2021/09/27 15:09:44;;;;;;;2.13;0.80;;;;;;;;;;4854543;29;20049;-77
2021/09/27 15:12:11;;;;;;;1.77;0.60;;;;;;;;;;4878736;29;20053;-76
2021/09/27 15:14:39;;;;;;;1.83;0.93;;;;;;;;;;4888342;29;20041;-76
2021/09/27 15:17:06;;;;;;;2.28;0.73;;;;;;;;;;4878930;29;20045;-77
2021/09/27 15:19:33;;;;;;;3.38;1.00;;;;;;;;;;4881311;29;20052;-77
2021/09/27 15:22:01;;;;;;;3.58;0.98;;;;;;;;;;4860709;29;20135;-76
2021/09/27 15:24:30;;;;;;;0.93;0.40;;;;;;;;;;4862034;29;20455;-77
2021/09/27 15:26:58;;;;;;;0.93;0.40;;;;;;;;;;4861904;29;20109;-77
2021/09/27 15:29:27;;;;;;;1.42;0.50;;;;;;;;;;4862443;29;20064;-78
2021/09/27 15:32:06;;;;;;;0.77;0.35;;;;;;;;;;4860961;29;20120;-77
2021/09/27 15:34:58;;;;;;;0.98;0.38;;;;;;;;;;4871581;29;20048;-77
2021/09/27 15:37:32;;;;;;;0.70;0.30;;;;;;;;;;4861685;29;20049;-79
2021/09/27 15:39:59;;;;;;;1.10;0.40;;;;;;;;;;4880202;29;20419;-78
2021/09/27 15:42:27;;;;;;;0.68;0.30;;;;;;;;;;4879506;29;20041;-77
2021/09/27 15:44:56;;;;;;;0.70;0.30;;;;;;;;;;4871529;29;20069;-76
2021/09/27 15:47:24;;;;;;;2.05;0.20;;;;;;;;;;4875566;29;20118;-77
2021/09/27 15:49:54;;;;;;;2.40;0.30;;;;;;;;;;4887833;29;20092;-75
2021/09/27 15:52:23;;;;;;;2.05;0.40;;;;;;;;;;4866180;29;20062;-77
2021/09/27 15:54:51;;;;;;;1.17;0.50;;;;;;;;;;4877653;29;20100;-78
2021/09/27 15:57:18;;;;;;;1.10;0.40;;;;;;;;;;4859253;29;20222;-78
2021/09/27 15:59:49;;;;;;;1.70;0.50;;;;;;;;;;4874726;29;20045;-77
2021/09/27 16:02:16;;;;;;;2.00;0.30;;;;;;;;;;4848145;29;20050;-77
2021/09/27 16:04:43;;;;;;;2.05;0.45;;;;;;;;;;4842278;29;20145;-77
2021/09/27 16:07:11;;;;;;;1.98;0.30;;;;;;;;;;4873943;29;20542;-77
2021/09/27 16:09:38;;;;;;;1.63;0.40;;;;;;;;;;4868269;29;20065;-77
2021/09/27 16:12:07;;;;;;;3.47;0.30;;;;;;;;;;4875919;29;20064;-79
2021/09/27 16:14:37;;;;;;;2.50;0.40;;;;;;;;;;4861355;29;20049;-77
2021/09/27 16:17:07;;;;;;;2.60;0.47;;;;;;;;;;4870793;29;20119;-76
2021/09/27 16:19:35;;;;;;;1.45;0.30;;;;;;;;;;4863335;29;20045;-76
2021/09/27 16:22:02;;;;;;;2.72;0.40;;;;;;;;;;4877830;29;20066;-76
2021/09/27 16:24:30;;;;;;;0.40;0.15;;;;;;;;;;4870562;29;20052;-76
2021/09/27 16:26:57;;;;;;;2.92;0.60;;;;;;;;;;4868872;29;20523;-76
2021/09/27 16:29:25;;;;;;;1.52;0.40;;;;;;;;;;4880697;29;20045;-76
2021/09/27 16:32:04;;;;;;;2.08;0.50;;;;;;;;;;4855450;29;20053;-76
2021/09/27 16:34:36;;;;;;;1.30;0.40;;;;;;;;;;4868039;29;20124;-76
2021/09/27 16:37:04;;;;;;;2.70;0.47;;;;;;;;;;4875691;29;20073;-78
2021/09/27 16:39:32;;;;;;;1.08;0.30;;;;;;;;;;4857672;29;20075;-77
2021/09/27 16:42:01;;;;;;;1.13;0.30;;;;;;;;;;4872406;29;20049;-78
2021/09/27 16:44:37;;;;;;;1.45;0.30;;;;;;;;;;4872180;29;20105;-77
2021/09/27 16:47:06;;;;;;;0.95;0.32;;;;;;;;;;4876957;29;20127;-77
2021/09/27 16:49:33;;;;;;;2.00;0.28;;;;;;;;;;4859093;29;20090;-77
2021/09/27 16:52:01;;;;;;;2.55;0.30;;;;;;;;;;4871381;29;20883;-76
2021/09/27 16:54:28;;;;;;;2.80;0.60;;;;;;;;;;4870970;29;20489;-77
2021/09/27 16:56:55;;;;;;;2.45;0.30;;;;;;;;;;4860893;29;20045;-76
2021/09/27 16:59:23;;;;;;;1.83;0.30;;;;;;;;;;4865040;29;20127;-77
2021/09/27 17:01:50;;;;;;;1.42;0.47;;;;;;;;;;4876107;29;20565;-77
2021/09/27 17:04:18;;;;;;;3.35;0.60;;;;;;;;;;4863083;29;20068;-79
2021/09/27 17:06:45;;;;;;;3.05;0.98;;;;;;;;;;4884230;29;20045;-76
2021/09/27 17:09:13;;;;;;;4.05;0.60;;;;;;;;;;4863842;29;20822;-77
2021/09/27 17:11:42;;;;;;;6.32;1.67;;;;;;;;;;4864807;29;20134;-78
2021/09/27 17:19:34;;;;;;;2.08;0.60;;;;;;;;;;4861164;29;20518;-77
2021/09/27 17:22:03;;;;;;;2.63;0.70;;;;;;;;;;4864850;29;20038;-77
2021/09/27 17:24:32;;;;;;;3.78;0.45;;;;;;;;;;4868500;29;20443;-77
2021/09/27 17:27:02;;;;;;;3.05;0.47;;;;;;;;;;4865817;29;20045;-78
2021/09/27 17:29:30;;;;;;;2.65;0.30;;;;;;;;;;4876055;29;20097;-79
2021/09/27 17:31:58;;;;;;;2.90;0.82;;;;;;;;;;4860199;29;20505;-78
2021/09/27 17:34:26;;;;;;;4.57;0.40;;;;;;;;;;4873942;29;20557;-78
2021/09/27 17:36:53;;;;;;;0.85;0.32;;;;;;;;;;4867005;29;20150;-77
2021/09/27 17:39:26;;;;;;;1.85;0.32;;;;;;;;;;4853180;29;20053;-78
2021/09/27 17:41:53;;;;;;;1.73;0.43;;;;;;;;;;4863419;29;20140;-77
2021/09/27 17:44:21;;;;;;;2.40;0.40;;;;;;;;;;4875941;29;20390;-78
2021/09/27 17:46:49;;;;;;;2.85;0.35;;;;;;;;;;4863824;29;20124;-77
2021/09/27 17:49:17;;;;;;;3.33;0.40;;;;;;;;;;4862070;29;20494;-78
2021/09/27 17:51:45;;;;;;;1.50;0.40;;;;;;;;;;4873084;29;20132;-77
2021/09/27 17:54:15;;;;;;;2.65;0.32;;;;;;;;;;4853172;29;20487;-78
2021/09/27 17:56:42;;;;;;;3.13;0.35;;;;;;;;;;4858731;29;20406;-78
2021/09/27 17:59:09;;;;;;;1.90;0.30;;;;;;;;;;4861097;29;20078;-77
2021/09/27 18:01:37;;;;;;;3.00;0.30;;;;;;;;;;4847712;29;20053;-76
2021/09/27 18:04:05;;;;;;;3.03;0.50;;;;;;;;;;4847570;29;20069;-78
2021/09/27 18:06:33;;;;;;;2.28;0.30;;;;;;;;;;4857992;29;20451;-78
2021/09/27 18:09:01;;;;;;;1.33;0.30;;;;;;;;;;4872383;29;20037;-78
2021/09/27 18:11:28;;;;;;;1.85;0.40;;;;;;;;;;4868356;29;20136;-77
2021/09/27 18:13:56;;;;;;;1.42;0.35;;;;;;;;;;4858384;29;20045;-77
2021/09/27 18:16:23;;;;;;;1.20;0.35;;;;;;;;;;4862932;29;20033;-77
2021/09/27 18:18:51;;;;;;;0.35;0.13;;;;;;;;;;4873010;29;20045;-77
2021/09/27 18:21:18;;;;;;;1.48;0.20;;;;;;;;;;4880118;29;20048;-77
2021/09/27 18:23:46;;;;;;;4.55;0.20;;;;;;;;;;4872622;29;20068;-76
2021/09/27 18:26:13;;;;;;;0.50;0.20;;;;;;;;;;4862270;29;20045;-76
2021/09/27 18:28:41;;;;;;;1.20;0.20;;;;;;;;;;4873915;29;20050;-76
2021/09/27 18:31:08;;;;;;;1.00;0.20;;;;;;;;;;4859252;29;20052;-77
2021/09/27 18:33:36;;;;;;;2.75;0.20;;;;;;;;;;4876375;29;20124;-77
2021/09/27 18:36:08;;;;;;;1.38;0.30;;;;;;;;;;4862557;29;20077;-77
2021/09/27 18:38:35;;;;;;;0.55;0.10;;;;;;;;;;4883361;29;20122;-76
2021/09/27 18:41:04;;;;;;;1.35;0.20;;;;;;;;;;4870522;29;20172;-76
2021/09/27 18:43:32;;;;;;;2.22;0.20;;;;;;;;;;4885151;29;20045;-76
2021/09/27 18:45:59;;;;;;;2.70;0.30;;;;;;;;;;4862589;29;20068;-76
2021/09/27 18:48:27;;;;;;;0.93;0.10;;;;;;;;;;4880680;29;20048;-77
2021/09/27 18:50:56;;;;;;;0.93;0.20;;;;;;;;;;4862116;29;20490;-76
2021/09/27 18:53:27;;;;;;;1.08;0.10;;;;;;;;;;4883037;29;20129;-75
2021/09/27 18:55:56;;;;;;;0.73;0.20;;;;;;;;;;4861146;29;20379;-77
2021/09/27 18:58:24;;;;;;;1.25;0.15;;;;;;;;;;4879340;29;20120;-76
2021/09/27 19:00:52;;;;;;;1.27;0.10;;;;;;;;;;4864706;29;20051;-76
2021/09/27 19:03:20;;;;;;;0.70;0.20;;;;;;;;;;4867778;29;20127;-76
2021/09/27 19:05:48;;;;;;;2.40;0.35;;;;;;;;;;4883497;29;20514;-76
2021/09/27 19:08:16;;;;;;;1.00;0.20;;;;;;;;;;4878762;29;20124;-75
2021/09/27 19:10:43;;;;;;;0.77;0.28;;;;;;;;;;4879854;29;20493;-75
2021/09/27 19:13:14;;;;;;;1.48;0.10;;;;;;;;;;4862436;29;20049;-75
2021/09/27 19:15:42;;;;;;;0.82;0.30;;;;;;;;;;4878868;29;20055;-75
2021/09/27 19:18:10;;;;;;;0.63;0.20;;;;;;;;;;4883996;29;20049;-76
2021/09/27 19:20:38;;;;;;;0.73;0.25;;;;;;;;;;4866000;29;20132;-76
2021/09/27 19:23:05;;;;;;;1.42;0.20;;;;;;;;;;4865434;29;20045;-77
2021/09/27 19:25:33;;;;;;;0.70;0.22;;;;;;;;;;4882590;29;20080;-78
2021/09/27 19:28:02;;;;;;;3.75;0.30;;;;;;;;;;4876873;29;20116;-77
2021/09/27 19:30:29;;;;;;;2.85;0.28;;;;;;;;;;4883748;29;20045;-76
2021/09/27 19:33:00;;;;;;;0.75;0.20;;;;;;;;;;4879611;29;20565;-76
2021/09/27 19:35:28;;;;;;;2.35;0.28;;;;;;;;;;4881905;29;20029;-79
2021/09/27 19:37:55;;;;;;;1.30;0.40;;;;;;;;;;4845094;29;20053;-77
2021/09/27 19:40:22;;;;;;;1.30;0.30;;;;;;;;;;4867304;29;20049;-76
2021/09/27 19:42:50;;;;;;;2.13;0.30;;;;;;;;;;4870721;29;20553;-78
2021/09/27 19:45:21;;;;;;;1.93;0.23;;;;;;;;;;4866264;29;20049;-79
2021/09/27 19:47:50;;;;;;;1.83;0.30;;;;;;;;;;4865103;29;20055;-79
2021/09/27 19:50:19;;;;;;;1.33;0.25;;;;;;;;;;4865186;29;20494;-79
2021/09/27 19:52:47;;;;;;;2.13;0.40;;;;;;;;;;4879353;29;20090;-79
2021/09/27 19:55:16;;;;;;;0.95;0.40;;;;;;;;;;4875910;29;20116;-79
2021/09/27 19:57:43;;;;;;;2.33;0.30;;;;;;;;;;4848648;29;20413;-79
2021/09/27 20:00:12;;;;;;;0.88;0.30;;;;;;;;;;4850314;29;20442;-80
2021/09/27 20:02:39;;;;;;;1.45;0.20;;;;;;;;;;4884385;29;20442;-78
2021/09/27 20:05:08;;;;;;;1.27;0.40;;;;;;;;;;4862324;29;20468;-79
2021/09/27 20:07:39;;;;;;;1.38;0.20;;;;;;;;;;4877609;29;20515;-79
2021/09/27 20:10:07;;;;;;;1.05;0.20;;;;;;;;;;4883988;29;20093;-78
2021/09/27 20:12:35;;;;;;;1.52;0.22;;;;;;;;;;4864970;29;20056;-78
2021/09/27 20:15:05;;;;;;;0.40;0.17;;;;;;;;;;4881760;29;20553;-78
2021/09/27 20:17:33;;;;;;;1.55;0.15;;;;;;;;;;4875379;29;20085;-79
2021/09/27 20:20:00;;;;;;;0.75;0.30;;;;;;;;;;4849798;29;20080;-77
2021/09/27 20:22:30;;;;;;;0.60;0.20;;;;;;;;;;4881737;29;20045;-77
2021/09/27 20:24:57;;;;;;;1.40;0.20;;;;;;;;;;4894453;29;20050;-78
2021/09/27 20:27:26;;;;;;;0.35;0.10;;;;;;;;;;4851971;29;20493;-78
2021/09/27 20:29:54;;;;;;;0.98;0.30;;;;;;;;;;4864713;29;20139;-77
2021/09/27 20:32:26;;;;;;;0.45;0.22;;;;;;;;;;4865049;29;20072;-78
2021/09/27 20:34:54;;;;;;;0.47;0.13;;;;;;;;;;4865055;29;20045;-77
2021/09/27 20:37:22;;;;;;;1.67;0.43;;;;;;;;;;4865100;29;20079;-77
2021/09/27 20:39:50;;;;;;;0.43;0.15;;;;;;;;;;4882471;29;20475;-77
2021/09/27 20:42:17;;;;;;;2.22;0.20;;;;;;;;;;4869401;29;20048;-77
2021/09/27 20:44:44;;;;;;;0.60;0.20;;;;;;;;;;4864685;29;20148;-78
2021/09/27 20:47:12;;;;;;;0.32;0.10;;;;;;;;;;4873953;29;20059;-76
2021/09/27 20:49:39;;;;;;;2.28;0.30;;;;;;;;;;4889032;29;20490;-77
2021/09/27 20:52:07;;;;;;;2.22;0.20;;;;;;;;;;4864794;29;20037;-78
2021/09/27 20:54:34;;;;;;;3.33;0.22;;;;;;;;;;4867304;29;20535;-78
2021/09/27 20:57:02;;;;;;;1.83;0.13;;;;;;;;;;4851314;29;20049;-78
2021/09/27 20:59:29;;;;;;;2.33;0.25;;;;;;;;;;4872380;29;20593;-76
2021/09/27 21:01:57;;;;;;;0.85;0.28;;;;;;;;;;4856500;29;20469;-76
2021/09/27 21:04:24;;;;;;;2.00;0.40;;;;;;;;;;4881040;29;20048;-76
2021/09/27 21:06:52;;;;;;;1.65;0.10;;;;;;;;;;4881233;29;20395;-76
2021/09/27 21:09:20;;;;;;;0.68;0.20;;;;;;;;;;4864413;29;20083;-76
2021/09/27 21:11:47;;;;;;;0.38;0.10;;;;;;;;;;4878860;29;20057;-77
2021/09/27 21:14:14;;;;;;;0.95;0.10;;;;;;;;;;4876432;29;20497;-77
2021/09/27 21:16:42;;;;;;;0.80;0.13;;;;;;;;;;4845886;29;20412;-79
2021/09/27 21:19:10;;;;;;;1.83;0.20;;;;;;;;;;4862498;29;20056;-77
2021/09/27 21:21:37;;;;;;;0.57;0.20;;;;;;;;;;4863719;29;20049;-76
2021/09/27 21:24:04;;;;;;;0.80;0.43;;;;;;;;;;4848052;29;20133;-76
2021/09/27 21:26:32;;;;;;;1.13;0.20;;;;;;;;;;4854833;29;20552;-77
2021/09/27 21:28:59;;;;;;;0.55;0.20;;;;;;;;;;4870375;29;20062;-76
2021/09/27 21:31:27;;;;;;;1.00;0.20;;;;;;;;;;4860176;29;20124;-76
2021/09/27 21:33:54;;;;;;;2.20;0.30;;;;;;;;;;4875078;29;20075;-76
2021/09/27 21:36:22;;;;;;;1.05;0.20;;;;;;;;;;4858510;29;20052;-77
2021/09/27 21:38:49;;;;;;;1.83;0.20;;;;;;;;;;4872393;29;20114;-76
2021/09/27 21:41:17;;;;;;;0.30;0.10;;;;;;;;;;4856000;29;20097;-80
2021/09/27 21:43:45;;;;;;;0.45;0.30;;;;;;;;;;4872006;29;20094;-77
2021/09/27 21:46:13;;;;;;;1.27;0.25;;;;;;;;;;4856474;29;20053;-76